If you wish to contribute or participate in the discussions about articles you are invited to join SKYbrary as a registered user

 Actions

Deadhorse (Prudhoe Bay)

From SKYbrary Wiki

PASC
Airport
ICAO: PASC
Summary
Name Deadhorse (Prudhoe Bay)
Region North America
Territory Alaska US.gif
Location Deadhorse
Serving
Coordinates 70° 11' 41.35" N, 148° 27' 46.39" W
Runways
Designator Length Width Surface ROPS
5/23 1981 m6,499.344 ft
46 m150.919 ft
ASPH-G yes/yes


METAR
Observation PASC 221853Z 06006KT 10SM OVC070 M05/M06 A2988 RMK AO2 SLP120 T10501061 $
Station Deadhorse, Deadhorse Airport
Date/Time 22 October 2019 18:53:00
Wind direction 60°
Wind speed 06 kts
Lowest cloud amount overcast
Temperature
Dew point
Humidity 91%
QNH hPa
Weather condition n/a

BS
Tag(s) Bird Strike
Non Avian Wildlife Hazards to Aircraft
CFIT
Tag(s) Altimeter Temperature Error Correction

Deadhorse Airport

ICAO: PASC IATA: SCC

Description

Regional airport serving Deadhorse, Alaska. Sometimes referred to as Prudhoe Bay Airport.

Climatology

Subarctic climate (Köppen climate classification Dfc) - long, usually very cold winters, and short, cool to mild summers.

Maps

Terrain

Loading map...

Airport Layout

Loading map...



Accidents & Serious Incidents at or in vicinity of PASC

None on SKYbrary